createdAt,value
2019-06-01T00:01:05.784Z,18.80
2019-06-01T00:03:33.287Z,18.80
2019-06-01T00:06:00.737Z,18.70
2019-06-01T00:08:28.255Z,18.70
2019-06-01T00:10:55.783Z,18.70
2019-06-01T00:13:23.298Z,15.90
2019-06-01T00:15:50.684Z,18.60
2019-06-01T00:18:18.548Z,18.60
2019-06-01T00:20:46.025Z,18.50
2019-06-01T00:23:13.444Z,18.50
2019-06-01T00:25:40.834Z,18.50
2019-06-01T00:28:09.495Z,18.50
2019-06-01T00:30:36.848Z,18.40
2019-06-01T00:33:04.214Z,18.40
2019-06-01T00:35:31.891Z,18.40
2019-06-01T00:37:59.351Z,18.30
2019-06-01T00:40:26.901Z,18.30
2019-06-01T00:42:54.338Z,18.20
2019-06-01T00:45:22.309Z,18.20
2019-06-01T00:47:50.873Z,18.30
2019-06-01T00:50:18.581Z,18.20
2019-06-01T00:52:47.115Z,18.10
2019-06-01T00:55:14.778Z,18.20
2019-06-01T00:57:43.391Z,18.20
2019-06-01T01:00:11.613Z,18.20
2019-06-01T01:02:39.051Z,18.20
2019-06-01T01:05:15.440Z,18.20
2019-06-01T01:07:42.854Z,18.10
2019-06-01T01:10:11.459Z,18.20
2019-06-01T01:12:57.263Z,18.20
2019-06-01T01:15:24.605Z,18.20
2019-06-01T01:17:52.043Z,18.20
2019-06-01T01:20:19.609Z,18.20
2019-06-01T01:22:48.332Z,18.20
2019-06-01T01:25:15.945Z,18.20
2019-06-01T01:27:43.281Z,18.20
2019-06-01T01:30:11.064Z,18.20
2019-06-01T01:32:38.429Z,18.20
2019-06-01T01:35:05.937Z,18.30
2019-06-01T01:37:33.389Z,18.20
2019-06-01T01:40:00.699Z,18.30
2019-06-01T01:42:28.132Z,18.20
2019-06-01T01:44:56.607Z,14.70
2019-06-01T01:47:24.071Z,18.20
2019-06-01T01:49:52.082Z,18.20
2019-06-01T01:52:19.561Z,18.20
2019-06-01T01:54:47.057Z,18.20
2019-06-01T01:57:14.413Z,18.10
2019-06-01T01:59:41.736Z,18.10
2019-06-01T02:02:09.063Z,18.10
2019-06-01T02:04:36.553Z,18.10
2019-06-01T02:07:03.936Z,18.00
2019-06-01T02:09:31.443Z,18.00
2019-06-01T02:11:59.624Z,18.00
2019-06-01T02:14:27.116Z,18.00
2019-06-01T02:16:56.129Z,18.00
2019-06-01T02:19:23.667Z,17.90
2019-06-01T02:21:52.261Z,18.10
2019-06-01T02:24:19.805Z,17.90
2019-06-01T02:26:47.245Z,17.90
2019-06-01T02:29:14.668Z,17.90
2019-06-01T02:31:43.013Z,17.90
2019-06-01T02:34:10.563Z,17.90
2019-06-01T02:36:37.986Z,17.90
2019-06-01T02:39:06.329Z,17.90
2019-06-01T02:41:34.202Z,17.90
2019-06-01T02:44:03.128Z,17.90
2019-06-01T02:46:34.761Z,17.90
2019-06-01T02:49:01.922Z,17.90
2019-06-01T02:51:29.450Z,17.90
2019-06-01T02:53:57.671Z,17.90
2019-06-01T02:56:25.149Z,17.60
2019-06-01T02:58:52.546Z,17.90
2019-06-01T03:01:34.555Z,17.80
2019-06-01T03:04:05.333Z,17.80
2019-06-01T03:06:33.102Z,17.80
2019-06-01T03:09:06.541Z,17.80
2019-06-01T03:11:35.131Z,17.80
2019-06-01T03:14:04.531Z,17.80
2019-06-01T03:16:34.206Z,17.80
2019-06-01T03:19:02.082Z,17.80
2019-06-01T03:21:32.921Z,17.80
2019-06-01T03:24:06.070Z,17.80
2019-06-01T03:26:39.888Z,17.80
2019-06-01T03:29:10.508Z,17.70
2019-06-01T03:31:38.051Z,17.70
2019-06-01T03:34:06.890Z,17.70
2019-06-01T03:36:34.832Z,17.70
2019-06-01T03:39:02.485Z,14.70
2019-06-01T03:41:30.817Z,17.60
2019-06-01T03:43:58.217Z,17.70
2019-06-01T03:46:25.670Z,17.70
2019-06-01T03:48:53.120Z,17.70
2019-06-01T03:51:21.369Z,17.70
2019-06-01T03:53:48.721Z,17.70
2019-06-01T03:56:16.099Z,17.70
2019-06-01T03:58:45.919Z,17.70
2019-06-01T04:01:13.383Z,17.70
2019-06-01T04:03:40.837Z,17.70
2019-06-01T04:06:09.514Z,17.70
2019-06-01T04:08:37.320Z,17.60
2019-06-01T04:11:05.646Z,17.70
2019-06-01T04:13:33.160Z,17.70
2019-06-01T04:16:01.660Z,17.70
2019-06-01T04:18:29.215Z,17.70
2019-06-01T04:20:56.613Z,17.70
2019-06-01T04:23:24.041Z,17.70
2019-06-01T04:25:51.389Z,17.70
2019-06-01T04:28:21.179Z,17.70
2019-06-01T04:30:48.737Z,17.70
2019-06-01T04:33:16.218Z,17.70
2019-06-01T04:35:44.086Z,17.70
2019-06-01T04:38:11.904Z,17.70
2019-06-01T04:40:39.374Z,17.70
2019-06-01T04:43:07.896Z,17.70
2019-06-01T04:45:35.568Z,17.80
2019-06-01T04:48:04.238Z,17.80
2019-06-01T04:50:32.154Z,17.80
2019-06-01T04:52:59.588Z,17.80
2019-06-01T04:55:26.920Z,17.80
2019-06-01T04:57:54.262Z,17.90
2019-06-01T05:00:27.449Z,17.90
2019-06-01T05:03:04.573Z,17.90
2019-06-01T05:05:20.419Z,17.90
2019-06-01T05:07:47.875Z,18.00
2019-06-01T05:10:16.133Z,18.00
2019-06-01T05:12:44.229Z,18.00
2019-06-01T05:15:14.017Z,18.10
2019-06-01T05:17:41.514Z,18.10
2019-06-01T05:20:10.428Z,18.10
2019-06-01T05:22:37.877Z,18.20
2019-06-01T05:25:06.706Z,18.20
2019-06-01T05:27:34.378Z,18.30
2019-06-01T05:30:01.857Z,18.30
2019-06-01T05:32:29.323Z,18.40
2019-06-01T05:34:56.829Z,16.60
2019-06-01T05:37:24.461Z,18.50
2019-06-01T05:39:51.979Z,18.50
2019-06-01T05:42:25.324Z,18.60
2019-06-01T05:44:52.704Z,18.60
2019-06-01T05:47:20.245Z,18.70
2019-06-01T05:49:47.742Z,18.70
2019-06-01T05:52:16.570Z,18.80
2019-06-01T05:54:44.238Z,18.90
2019-06-01T05:57:12.648Z,18.90
2019-06-01T05:59:40.139Z,19.00
2019-06-01T06:02:08.574Z,19.00
2019-06-01T06:04:36.336Z,19.10
2019-06-01T06:07:04.914Z,19.10
2019-06-01T06:09:32.435Z,19.20
2019-06-01T06:14:47.157Z,19.30
2019-06-01T06:17:17.119Z,19.40
2019-06-01T06:19:44.003Z,19.40
2019-06-01T06:22:12.005Z,19.40
2019-06-01T06:24:39.550Z,19.50
2019-06-01T06:27:07.096Z,19.60
2019-06-01T06:29:34.676Z,21.50
2019-06-01T06:32:02.179Z,19.70
2019-06-01T06:34:29.628Z,19.80
2019-06-01T06:36:57.235Z,19.80
2019-06-01T06:39:27.503Z,20.00
2019-06-01T06:41:57.076Z,20.00
2019-06-01T06:44:24.848Z,20.00
2019-06-01T06:46:52.614Z,20.10
2019-06-01T06:49:21.284Z,20.20
2019-06-01T06:51:48.945Z,20.20
2019-06-01T06:54:17.620Z,20.30
2019-06-01T06:56:45.383Z,20.40
2019-06-01T06:59:13.047Z,20.50
2019-06-01T07:01:40.504Z,20.60
2019-06-01T07:04:12.600Z,20.70
2019-06-01T07:06:38.392Z,20.80
2019-06-01T07:09:05.960Z,20.80
2019-06-01T07:11:33.459Z,21.00
2019-06-01T07:14:01.013Z,21.10
2019-06-01T07:16:28.504Z,21.10
2019-06-01T07:18:56.058Z,21.20
2019-06-01T07:21:23.821Z,21.30
2019-06-01T07:23:51.755Z,21.40
2019-06-01T07:26:19.909Z,21.60
2019-06-01T07:28:47.708Z,22.90
2019-06-01T07:31:22.753Z,21.80
2019-06-01T07:33:50.365Z,22.00
2019-06-01T07:36:17.929Z,22.10
2019-06-01T07:38:45.432Z,22.10
2019-06-01T07:41:13.178Z,22.30
2019-06-01T07:43:40.615Z,22.40
2019-06-01T07:46:08.031Z,22.50
2019-06-01T07:48:38.557Z,22.60
2019-06-01T07:51:06.055Z,22.70
2019-06-01T07:53:33.398Z,22.80
2019-06-01T07:56:00.899Z,22.90
2019-06-01T07:58:28.775Z,23.10
2019-06-01T08:00:56.468Z,23.10
2019-06-01T08:03:26.588Z,23.30
2019-06-01T08:05:56.563Z,24.40
2019-06-01T08:08:25.279Z,24.60
2019-06-01T08:10:53.255Z,23.70
2019-06-01T08:13:21.456Z,23.80
2019-06-01T08:15:49.088Z,23.90
2019-06-01T08:19:04.132Z,24.00
2019-06-01T08:21:32.389Z,24.20
2019-06-01T08:23:59.968Z,24.40
2019-06-01T08:26:28.446Z,24.50
2019-06-01T08:28:56.085Z,24.60
2019-06-01T08:31:24.540Z,24.70
2019-06-01T08:33:52.140Z,24.80
2019-06-01T08:36:19.601Z,25.00
2019-06-01T08:38:47.782Z,25.10
2019-06-01T08:41:15.160Z,25.30
2019-06-01T08:43:42.842Z,25.50
2019-06-01T08:46:10.289Z,24.90
2019-06-01T08:48:37.711Z,26.40
2019-06-01T08:51:05.098Z,27.20
2019-06-01T08:53:32.690Z,28.30
2019-06-01T08:56:00.286Z,29.40
2019-06-01T08:58:28.212Z,30.60
2019-06-01T09:00:55.616Z,31.80
2019-06-01T09:03:22.959Z,33.10
2019-06-01T09:05:50.380Z,34.20
2019-06-01T09:08:17.911Z,35.30
2019-06-01T09:10:45.357Z,36.40
2019-06-01T09:13:12.723Z,37.30
2019-06-01T09:15:40.143Z,38.20
2019-06-01T09:18:07.650Z,39.10
2019-06-01T09:20:38.551Z,40.00
2019-06-01T09:23:04.475Z,40.90
2019-06-01T09:25:31.842Z,41.70
2019-06-01T09:27:59.212Z,42.50
2019-06-01T09:30:27.878Z,43.30
2019-06-01T09:32:55.420Z,44.10
2019-06-01T09:35:22.937Z,44.70
2019-06-01T09:37:50.377Z,45.40
2019-06-01T09:40:17.940Z,46.00
2019-06-01T09:42:45.450Z,46.50
2019-06-01T09:45:13.348Z,47.10
2019-06-01T09:47:43.077Z,47.70
2019-06-01T09:50:10.714Z,48.30
2019-06-01T09:52:38.289Z,48.90
2019-06-01T09:55:05.921Z,49.40
2019-06-01T09:57:34.188Z,49.90
2019-06-01T10:00:01.832Z,50.20
2019-06-01T10:02:29.934Z,50.50
2019-06-01T10:04:57.590Z,50.90
2019-06-01T10:07:25.249Z,51.10
2019-06-01T10:09:52.579Z,51.20
2019-06-01T10:12:19.990Z,51.40
2019-06-01T10:14:47.411Z,51.40
2019-06-01T10:19:48.306Z,51.20
2019-06-01T10:22:16.936Z,50.70
2019-06-01T10:24:44.485Z,50.20
2019-06-01T10:27:11.873Z,49.40
2019-06-01T10:29:39.985Z,48.50
2019-06-01T10:32:07.549Z,47.60
2019-06-01T10:34:35.652Z,46.70
2019-06-01T10:37:03.130Z,45.70
2019-06-01T10:39:31.245Z,44.80
2019-06-01T10:41:58.673Z,43.80
2019-06-01T10:44:26.189Z,42.90
2019-06-01T10:46:53.663Z,42.00
2019-06-01T10:49:21.059Z,41.10
2019-06-01T10:51:48.602Z,40.30
2019-06-01T10:54:15.977Z,39.50
2019-06-01T10:56:43.402Z,38.80
2019-06-01T10:59:11.020Z,38.30
2019-06-01T11:01:38.896Z,37.70
2019-06-01T11:04:06.410Z,37.10
2019-06-01T11:06:42.097Z,36.70
2019-06-01T11:09:05.624Z,36.30
2019-06-01T11:11:32.999Z,35.90
2019-06-01T11:14:00.543Z,35.60
2019-06-01T11:16:28.178Z,35.30
2019-06-01T11:18:55.639Z,35.00
2019-06-01T11:21:23.144Z,34.60
2019-06-01T11:23:50.674Z,34.30
2019-06-01T11:26:18.195Z,34.10
2019-06-01T11:28:45.795Z,33.90
2019-06-01T11:31:13.144Z,33.70
2019-06-01T11:33:40.714Z,37.10
2019-06-01T11:36:08.566Z,33.30
2019-06-01T11:38:36.342Z,33.20
2019-06-01T11:41:06.998Z,30.90
2019-06-01T11:43:34.581Z,32.90
2019-06-01T11:46:02.097Z,32.80
2019-06-01T11:48:29.554Z,32.70
2019-06-01T11:50:57.034Z,32.50
2019-06-01T11:53:24.484Z,32.50
2019-06-01T11:55:51.908Z,32.40
2019-06-01T11:58:19.401Z,32.40
2019-06-01T12:00:46.815Z,32.20
2019-06-01T12:03:14.312Z,32.20
2019-06-01T12:05:42.158Z,32.20
2019-06-01T12:08:09.824Z,32.20
2019-06-01T12:10:38.812Z,32.20
2019-06-01T12:13:06.523Z,32.20
2019-06-01T12:15:33.924Z,32.20
2019-06-01T12:18:01.414Z,32.30
2019-06-01T12:20:28.921Z,32.30
2019-06-01T12:22:56.420Z,32.30
2019-06-01T12:25:24.272Z,32.20
2019-06-01T12:27:51.783Z,32.10
2019-06-01T12:30:19.964Z,32.80
2019-06-01T12:32:48.885Z,32.20
2019-06-01T12:35:16.846Z,32.10
2019-06-01T12:37:59.577Z,32.20
2019-06-01T12:40:14.058Z,32.10
2019-06-01T12:42:41.548Z,32.00
2019-06-01T12:45:17.316Z,32.00
2019-06-01T12:47:48.318Z,31.80
2019-06-01T12:50:14.771Z,31.80
2019-06-01T12:52:42.360Z,31.70
2019-06-01T12:55:09.797Z,31.70
2019-06-01T12:57:37.345Z,31.60
2019-06-01T13:00:06.574Z,31.60
2019-06-01T13:02:34.650Z,31.60
2019-06-01T13:05:02.200Z,31.50
2019-06-01T13:07:29.659Z,31.50
2019-06-01T13:09:57.023Z,31.50
2019-06-01T13:12:24.553Z,31.50
2019-06-01T13:14:52.280Z,29.50
2019-06-01T13:17:20.053Z,31.50
2019-06-01T13:19:47.586Z,31.40
2019-06-01T13:22:15.054Z,31.20
2019-06-01T13:24:43.745Z,31.40
2019-06-01T13:27:11.213Z,31.40
2019-06-01T13:29:38.671Z,31.30
2019-06-01T13:32:06.068Z,31.30
2019-06-01T13:34:34.390Z,31.30
2019-06-01T13:37:02.011Z,31.40
2019-06-01T13:39:29.370Z,31.40
2019-06-01T13:41:56.843Z,31.40
2019-06-01T13:44:24.256Z,31.40
2019-06-01T13:46:51.764Z,31.40
2019-06-01T13:49:19.367Z,31.30
2019-06-01T13:51:47.965Z,31.30
2019-06-01T13:54:15.584Z,31.20
2019-06-01T13:56:43.053Z,31.10
2019-06-01T13:59:10.488Z,31.00
2019-06-01T14:01:37.924Z,31.00
2019-06-01T14:04:05.509Z,30.90
2019-06-01T14:06:33.040Z,30.90
2019-06-01T14:09:00.507Z,30.90
2019-06-01T14:11:27.968Z,31.00
2019-06-01T14:13:56.161Z,31.00
2019-06-01T14:16:23.662Z,31.10
2019-06-01T14:18:51.959Z,31.20
2019-06-01T14:21:19.555Z,31.20
2019-06-01T14:23:47.641Z,31.20
2019-06-01T14:26:15.287Z,31.20
2019-06-01T14:28:44.166Z,31.20
2019-06-01T14:31:11.702Z,31.10
2019-06-01T14:33:39.044Z,31.00
2019-06-01T14:36:06.442Z,30.90
2019-06-01T14:38:46.478Z,30.70
2019-06-01T14:41:03.383Z,30.70
2019-06-01T14:43:30.964Z,30.60
2019-06-01T14:45:58.451Z,30.50
2019-06-01T14:48:25.887Z,30.50
2019-06-01T14:50:53.816Z,30.50
2019-06-01T14:53:21.412Z,30.50
2019-06-01T14:55:49.756Z,30.50
2019-06-01T14:58:17.477Z,30.50
2019-06-01T15:00:45.037Z,30.60
2019-06-01T15:03:12.575Z,30.60
2019-06-01T15:05:40.253Z,30.60
2019-06-01T15:08:07.818Z,30.60
2019-06-01T15:10:35.404Z,30.60
2019-06-01T15:13:03.531Z,30.50
2019-06-01T15:15:31.064Z,30.50
2019-06-01T15:17:58.536Z,30.50
2019-06-01T15:20:26.190Z,29.20
2019-06-01T15:22:54.202Z,30.50
2019-06-01T15:25:21.682Z,30.50
2019-06-01T15:27:50.542Z,30.50
2019-06-01T15:30:18.577Z,31.60
2019-06-01T15:32:45.937Z,30.50
2019-06-01T15:35:13.513Z,30.50
2019-06-01T15:37:40.877Z,30.60
2019-06-01T15:40:09.150Z,30.50
2019-06-01T15:42:36.605Z,30.60
2019-06-01T15:45:05.329Z,30.60
2019-06-01T15:47:32.761Z,30.60
2019-06-01T15:50:00.179Z,30.60
2019-06-01T15:52:27.598Z,30.50
2019-06-01T15:54:56.176Z,30.50
2019-06-01T15:57:23.687Z,30.50
2019-06-01T15:59:52.351Z,30.50
2019-06-01T16:02:20.056Z,30.40
2019-06-01T16:04:47.567Z,30.40
2019-06-01T16:07:14.948Z,30.30
2019-06-01T16:09:43.426Z,30.20
2019-06-01T16:12:11.301Z,30.20
2019-06-01T16:14:38.680Z,30.10
2019-06-01T16:17:06.094Z,30.10
2019-06-01T16:19:34.393Z,30.00
2019-06-01T16:22:02.634Z,29.90
2019-06-01T16:24:30.081Z,28.20
2019-06-01T16:26:58.220Z,29.80
2019-06-01T16:29:25.675Z,29.70
2019-06-01T16:31:54.512Z,29.60
2019-06-01T16:34:22.151Z,29.50
2019-06-01T16:36:49.497Z,29.50
2019-06-01T16:39:16.863Z,29.30
2019-06-01T16:41:44.256Z,29.40
2019-06-01T16:44:11.673Z,29.30
2019-06-01T16:46:39.017Z,29.30
2019-06-01T16:49:06.452Z,29.20
2019-06-01T16:51:51.161Z,29.10
2019-06-01T16:54:18.718Z,29.10
2019-06-01T16:56:46.165Z,28.90
2019-06-01T16:59:13.731Z,29.00
2019-06-01T17:01:41.026Z,28.90
2019-06-01T17:04:08.465Z,28.90
2019-06-01T17:06:37.516Z,28.80
2019-06-01T17:09:07.026Z,28.80
2019-06-01T17:11:34.578Z,28.70
2019-06-01T17:14:02.849Z,28.70
2019-06-01T17:16:30.244Z,28.60
2019-06-01T17:18:58.894Z,28.60
2019-06-01T17:21:26.461Z,28.50
2019-06-01T17:23:54.179Z,28.50
2019-06-01T17:26:21.584Z,28.50
2019-06-01T17:28:49.341Z,28.40
2019-06-01T17:31:16.681Z,28.30
2019-06-01T17:33:44.069Z,28.30
2019-06-01T17:36:11.532Z,28.30
2019-06-01T17:38:38.966Z,28.10
2019-06-01T17:41:06.531Z,28.20
2019-06-01T17:43:34.003Z,28.20
2019-06-01T17:46:02.730Z,28.10
2019-06-01T17:48:30.278Z,28.00
2019-06-01T17:50:58.370Z,28.00
2019-06-01T17:53:26.040Z,27.90
2019-06-01T17:55:53.454Z,27.90
2019-06-01T17:58:22.699Z,27.80
2019-06-01T18:00:50.380Z,25.10
2019-06-01T18:03:17.989Z,27.80
2019-06-01T18:05:45.549Z,27.60
2019-06-01T18:08:13.452Z,27.60
2019-06-01T18:10:53.233Z,27.50
2019-06-01T18:13:12.901Z,27.60
2019-06-01T18:18:31.006Z,27.40
2019-06-01T18:20:58.525Z,27.40
2019-06-01T18:23:26.066Z,27.30
2019-06-01T18:25:53.564Z,27.30
2019-06-01T18:28:21.233Z,27.20
2019-06-01T18:30:49.657Z,28.50
2019-06-01T18:33:17.142Z,27.00
2019-06-01T18:35:44.750Z,27.00
2019-06-01T18:38:13.043Z,26.90
2019-06-01T18:40:41.847Z,26.90
2019-06-01T18:43:14.113Z,26.80
2019-06-01T18:45:42.241Z,26.70
2019-06-01T18:48:10.155Z,26.70
2019-06-01T18:53:29.053Z,26.60
2019-06-01T18:55:56.754Z,26.50
2019-06-01T18:58:24.264Z,26.40
2019-06-01T19:00:51.684Z,26.40
2019-06-01T19:03:19.275Z,26.30
2019-06-01T19:05:46.840Z,26.20
2019-06-01T19:08:17.507Z,26.20
2019-06-01T19:10:45.009Z,24.30
2019-06-01T19:13:13.882Z,26.00
2019-06-01T19:15:42.519Z,24.30
2019-06-01T19:18:10.450Z,25.90
2019-06-01T19:20:38.193Z,25.90
2019-06-01T19:23:06.605Z,25.80
2019-06-01T19:25:34.589Z,25.80
2019-06-01T19:28:02.089Z,25.70
2019-06-01T19:30:37.846Z,25.70
2019-06-01T19:33:07.355Z,25.60
2019-06-01T19:35:34.903Z,25.60
2019-06-01T19:38:03.045Z,25.50
2019-06-01T19:40:37.555Z,25.50
2019-06-01T19:43:07.249Z,25.40
2019-06-01T19:45:34.962Z,25.30
2019-06-01T19:48:02.841Z,25.30
2019-06-01T19:50:30.383Z,25.10
2019-06-01T19:52:57.844Z,22.30
2019-06-01T19:55:25.323Z,25.10
2019-06-01T19:57:52.804Z,25.00
2019-06-01T20:00:20.403Z,25.00
2019-06-01T20:02:47.870Z,25.00
2019-06-01T20:05:16.717Z,24.90
2019-06-01T20:07:44.268Z,24.80
2019-06-01T20:10:12.213Z,24.80
2019-06-01T20:12:39.750Z,24.80
2019-06-01T20:15:07.380Z,24.70
2019-06-01T20:17:34.870Z,24.70
2019-06-01T20:20:02.345Z,24.60
2019-06-01T20:22:29.888Z,24.60
2019-06-01T20:24:57.465Z,24.60
2019-06-01T20:27:24.998Z,24.50
2019-06-01T20:29:52.417Z,24.40
2019-06-01T20:32:20.069Z,24.40
2019-06-01T20:34:47.500Z,24.30
2019-06-01T20:37:15.931Z,24.30
2019-06-01T20:39:43.915Z,24.30
2019-06-01T20:42:23.216Z,24.20
2019-06-01T20:44:40.946Z,24.20
2019-06-01T20:47:08.870Z,24.20
2019-06-01T20:49:36.330Z,24.10
2019-06-01T20:52:03.924Z,24.10
2019-06-01T20:54:31.386Z,24.00
2019-06-01T20:56:59.092Z,24.00
2019-06-01T20:59:26.705Z,23.90
2019-06-01T21:01:54.259Z,23.90
2019-06-01T21:04:22.298Z,23.80
2019-06-01T21:06:51.108Z,23.80
2019-06-01T21:09:19.974Z,23.80
2019-06-01T21:11:50.229Z,23.10
2019-06-01T21:14:17.876Z,23.60
2019-06-01T21:16:45.576Z,23.70
2019-06-01T21:19:14.563Z,23.60
2019-06-01T21:21:42.193Z,23.60
2019-06-01T21:24:09.723Z,23.50
2019-06-01T21:26:37.804Z,23.50
2019-06-01T21:29:05.291Z,21.50
2019-06-01T21:31:33.209Z,23.40
2019-06-01T21:34:00.919Z,23.40
2019-06-01T21:36:28.457Z,23.30
2019-06-01T21:38:59.163Z,23.30
2019-06-01T21:41:38.851Z,23.30
2019-06-01T21:44:06.737Z,23.30
2019-06-01T21:46:34.997Z,23.20
2019-06-01T21:49:04.576Z,23.20
2019-06-01T21:51:34.381Z,23.10
2019-06-01T21:54:04.418Z,23.10
2019-06-01T21:56:34.458Z,22.10
2019-06-01T21:59:02.306Z,23.00
2019-06-01T22:01:30.020Z,23.00
2019-06-01T22:03:57.951Z,23.00
2019-06-01T22:06:27.484Z,23.00
2019-06-01T22:09:05.466Z,22.90
2019-06-01T22:11:34.690Z,22.80
2019-06-01T22:14:23.461Z,22.90
2019-06-01T22:16:51.922Z,22.80
2019-06-01T22:19:21.527Z,22.80
2019-06-01T22:21:54.100Z,22.80
2019-06-01T22:24:22.149Z,22.70
2019-06-01T22:26:50.157Z,22.70
2019-06-01T22:29:18.726Z,22.70
2019-06-01T22:31:47.873Z,22.60
2019-06-01T22:34:15.597Z,22.60
2019-06-01T22:36:45.478Z,22.60
2019-06-01T22:39:19.374Z,22.50
2019-06-01T22:41:49.512Z,22.50
2019-06-01T22:44:19.986Z,22.50
2019-06-01T22:46:48.838Z,22.40
2019-06-01T22:49:18.072Z,22.40
2019-06-01T22:51:47.665Z,22.30
2019-06-01T22:54:41.129Z,22.30
2019-06-01T22:57:11.722Z,22.20
2019-06-01T22:59:40.481Z,22.30
2019-06-01T23:02:14.526Z,22.20
2019-06-01T23:04:42.687Z,22.20
2019-06-01T23:07:17.217Z,22.30
2019-06-01T23:09:46.454Z,22.20
2019-06-01T23:12:25.447Z,22.20
2019-06-01T23:14:54.131Z,20.70
2019-06-01T23:17:23.871Z,22.10
2019-06-01T23:19:52.281Z,22.10
2019-06-01T23:22:21.645Z,22.10
2019-06-01T23:24:50.535Z,22.00
2019-06-01T23:27:22.063Z,22.00
2019-06-01T23:29:50.246Z,22.00
2019-06-01T23:32:18.231Z,23.70
2019-06-01T23:34:45.786Z,21.90
2019-06-01T23:37:13.742Z,21.90
2019-06-01T23:39:41.274Z,21.90
2019-06-01T23:42:08.827Z,21.80
2019-06-01T23:44:36.220Z,21.80
2019-06-01T23:47:03.985Z,21.80
2019-06-01T23:49:31.829Z,21.80
2019-06-01T23:51:59.319Z,21.70
2019-06-01T23:54:27.645Z,21.70
2019-06-01T23:56:55.323Z,21.70
2019-06-01T23:59:23.947Z,21.70
